createdAt,value
2018-01-30T00:00:02.931Z,5.9
2018-01-30T00:05:26.118Z,5.9
2018-01-30T00:10:20.752Z,5.9
2018-01-30T00:15:15.156Z,5.9
2018-01-30T00:20:02.703Z,5.9
2018-01-30T00:25:05.524Z,5.9
2018-01-30T00:30:10.550Z,5.8
2018-01-30T00:35:09.967Z,5.8
2018-01-30T00:40:05.390Z,5.7
2018-01-30T00:45:10.856Z,5.6
2018-01-30T00:50:08.566Z,5.5
2018-01-30T00:55:02.764Z,5.5
2018-01-30T01:00:08.252Z,5.4
2018-01-30T01:05:02.624Z,5.4
2018-01-30T01:10:15.230Z,5.3
2018-01-30T01:15:05.466Z,5.3
2018-01-30T01:20:10.582Z,5.3
2018-01-30T01:25:08.373Z,5.2
2018-01-30T01:30:05.334Z,5.2
2018-01-30T01:35:08.272Z,5.3
2018-01-30T01:40:08.210Z,5.3
2018-01-30T01:45:02.558Z,5.3
2018-01-30T01:50:05.554Z,5.4
2018-01-30T01:55:05.910Z,5.4
2018-01-30T02:00:08.457Z,5.4
2018-01-30T02:05:02.703Z,5.4
2018-01-30T02:10:07.593Z,5.3
2018-01-30T02:15:05.470Z,5.3
2018-01-30T02:20:02.960Z,5.2
2018-01-30T02:25:05.854Z,5.4
2018-01-30T02:30:03.274Z,5.3
2018-01-30T02:35:07.775Z,5.3
2018-01-30T02:40:07.700Z,5.4
2018-01-30T02:45:05.577Z,5.3
2018-01-30T02:50:05.544Z,5.3
2018-01-30T02:55:03.383Z,5.2
2018-01-30T03:00:02.803Z,5.3
2018-01-30T03:05:08.190Z,5.3
2018-01-30T03:10:05.626Z,5.3
2018-01-30T03:15:04.980Z,5.3
2018-01-30T03:20:02.476Z,5.3
2018-01-30T03:25:02.863Z,5.3
2018-01-30T03:30:08.375Z,5.2
2018-01-30T03:35:05.189Z,5.3
2018-01-30T03:40:08.071Z,5.3
2018-01-30T03:45:02.451Z,5.3
2018-01-30T03:50:25.631Z,5.3
2018-01-30T03:55:08.090Z,5.3
2018-01-30T04:00:05.059Z,5.3
2018-01-30T04:05:10.479Z,5.3
2018-01-30T04:10:10.975Z,5.3
2018-01-30T04:15:05.283Z,5.3
2018-01-30T04:20:05.292Z,5.4
2018-01-30T04:25:03.178Z,5.3
2018-01-30T04:30:02.744Z,5.4
2018-01-30T04:35:05.678Z,5.4
2018-01-30T04:40:15.401Z,5.4
2018-01-30T04:45:03.256Z,5.4
2018-01-30T04:50:07.917Z,5.2
2018-01-30T04:55:05.886Z,5.2
2018-01-30T05:00:08.496Z,5.1
2018-01-30T05:05:07.955Z,5.1
2018-01-30T05:10:05.485Z,5.1
2018-01-30T05:15:02.498Z,5.1
2018-01-30T05:20:05.670Z,5.4
2018-01-30T05:25:02.566Z,5.3
2018-01-30T05:30:10.662Z,5.4
2018-01-30T05:35:07.638Z,5.3
2018-01-30T05:40:10.253Z,5.3
2018-01-30T05:45:05.694Z,5.3
2018-01-30T05:50:03.186Z,5.3
2018-01-30T05:55:02.766Z,5.3
2018-01-30T06:00:05.843Z,5.4
2018-01-30T06:05:05.274Z,5.4
2018-01-30T06:10:28.517Z,5.4
2018-01-30T06:15:03.017Z,5.4
2018-01-30T06:20:07.691Z,5.4
2018-01-30T06:25:03.028Z,5.4
2018-01-30T06:30:05.657Z,5.4
2018-01-30T06:35:05.117Z,5.4
2018-01-30T06:40:03.096Z,5.4
2018-01-30T06:45:05.225Z,5.4
2018-01-30T06:50:02.791Z,5.4
2018-01-30T06:55:03.188Z,5.4
2018-01-30T07:00:02.734Z,5.4
2018-01-30T07:05:03.191Z,5.4
2018-01-30T07:10:03.182Z,5.4
2018-01-30T07:15:10.253Z,5.4
2018-01-30T07:20:07.882Z,5.5
2018-01-30T07:25:10.953Z,5.4
2018-01-30T07:30:02.554Z,5.4
2018-01-30T07:35:23.141Z,5.5
2018-01-30T07:40:03.171Z,5.5
2018-01-30T07:45:10.198Z,5.4
2018-01-30T07:50:02.658Z,5.4
2018-01-30T07:55:08.240Z,5.5
2018-01-30T08:00:20.562Z,5.4
2018-01-30T08:05:05.834Z,5.4
2018-01-30T08:10:25.642Z,5.4
2018-01-30T08:15:10.763Z,5.4
2018-01-30T08:20:03.368Z,5.4
2018-01-30T08:25:05.357Z,5.4
2018-01-30T08:30:02.920Z,5.4
2018-01-30T08:35:02.476Z,5.5
2018-01-30T08:40:04.946Z,5.5
2018-01-30T08:45:05.545Z,5.5
2018-01-30T08:50:05.584Z,5.5
2018-01-30T08:55:07.553Z,5.5
2018-01-30T09:00:05.682Z,5.6
2018-01-30T09:05:05.121Z,5.6
2018-01-30T09:10:08.101Z,5.6
2018-01-30T09:15:32.863Z,5.5
2018-01-30T09:20:02.514Z,5.5
2018-01-30T09:25:05.495Z,5.6
2018-01-30T09:30:05.639Z,5.7
2018-01-30T09:35:07.498Z,5.8
2018-01-30T09:40:02.446Z,5.8
2018-01-30T09:45:05.547Z,6
2018-01-30T09:50:05.629Z,6.1
2018-01-30T09:55:05.154Z,6.1
2018-01-30T10:00:12.873Z,6.2
2018-01-30T10:05:03.195Z,6.2
2018-01-30T10:10:08.242Z,6.3
2018-01-30T10:15:05.238Z,6.4
2018-01-30T10:20:02.883Z,6.4
2018-01-30T10:25:05.921Z,6.6
2018-01-30T10:30:07.469Z,6.6
2018-01-30T10:35:02.934Z,6.6
2018-01-30T10:40:02.918Z,6.6
2018-01-30T10:45:02.493Z,6.5
2018-01-30T10:50:05.636Z,6.4
2018-01-30T10:55:02.560Z,6.4
2018-01-30T11:00:30.856Z,6.4
2018-01-30T11:05:08.420Z,6.2
2018-01-30T11:10:04.964Z,6.3
2018-01-30T11:15:03.015Z,6.3
2018-01-30T11:20:30.482Z,6.4
2018-01-30T11:25:05.503Z,6.5
2018-01-30T11:30:05.535Z,6.6
2018-01-30T11:35:05.004Z,6.6
2018-01-30T11:40:08.141Z,6.6
2018-01-30T11:45:12.746Z,6.7
2018-01-30T11:50:10.980Z,6.7
2018-01-30T11:55:05.285Z,6.8
2018-01-30T12:00:02.927Z,6.8
2018-01-30T12:05:05.913Z,6.8
2018-01-30T12:10:02.986Z,6.8
2018-01-30T12:15:02.445Z,6.8
2018-01-30T12:20:03.062Z,6.8
2018-01-30T12:25:02.597Z,6.9
2018-01-30T12:30:08.132Z,7
2018-01-30T12:35:05.135Z,7.3
2018-01-30T12:40:03.237Z,7.2
2018-01-30T12:45:07.835Z,7.1
2018-01-30T12:50:05.903Z,7
2018-01-30T12:55:02.876Z,7
2018-01-30T13:00:06.032Z,6.8
2018-01-30T13:05:07.945Z,6.9
2018-01-30T13:10:02.884Z,6.9
2018-01-30T13:15:07.633Z,6.8
2018-01-30T13:20:03.287Z,6.8
2018-01-30T13:25:07.860Z,6.7
2018-01-30T13:30:13.488Z,6.7
2018-01-30T13:35:30.685Z,6.8
2018-01-30T13:40:27.986Z,6.8
2018-01-30T13:45:05.024Z,6.8
2018-01-30T13:50:02.586Z,6.8
2018-01-30T13:55:05.586Z,6.9
2018-01-30T14:00:05.716Z,6.9
2018-01-30T14:05:07.719Z,6.9
2018-01-30T14:10:22.995Z,6.9
2018-01-30T14:15:05.717Z,6.9
2018-01-30T14:25:10.595Z,6.9
2018-01-30T14:30:20.891Z,6.8
2018-01-30T14:35:25.488Z,6.7
2018-01-30T14:40:02.571Z,6.7
2018-01-30T14:45:02.961Z,6.8
2018-01-30T14:50:02.495Z,6.9
2018-01-30T14:55:08.211Z,6.8
2018-01-30T15:00:05.275Z,6.9
2018-01-30T15:05:02.484Z,6.9
2018-01-30T15:10:02.485Z,7
2018-01-30T15:15:10.580Z,6.7
2018-01-30T15:20:03.188Z,6.7
2018-01-30T15:25:05.342Z,6.6
2018-01-30T15:30:07.939Z,6.5
2018-01-30T15:35:03.435Z,6.5
2018-01-30T15:40:02.445Z,6.5
2018-01-30T15:45:05.592Z,6.3
2018-01-30T15:50:30.934Z,6.2
2018-01-30T15:55:02.445Z,6.2
2018-01-30T16:00:02.946Z,6.1
2018-01-30T16:05:02.478Z,6
2018-01-30T16:10:15.268Z,5.9
2018-01-30T16:15:15.738Z,5.9
2018-01-30T16:20:03.314Z,5.9
2018-01-30T16:25:08.009Z,5.9
2018-01-30T16:30:20.233Z,5.9
2018-01-30T16:35:15.643Z,5.9
2018-01-30T16:40:05.193Z,5.8
2018-01-30T16:45:05.663Z,5.8
2018-01-30T16:50:08.240Z,5.7
2018-01-30T16:55:02.772Z,5.7
2018-01-30T17:00:03.325Z,5.7
2018-01-30T17:05:02.777Z,5.6
2018-01-30T17:10:02.769Z,5.5
2018-01-30T17:15:05.864Z,5.3
2018-01-30T17:20:10.135Z,5.2
2018-01-30T17:25:03.307Z,5.2
2018-01-30T17:30:05.456Z,5.1
2018-01-30T17:35:04.945Z,5.1
2018-01-30T17:40:10.909Z,4.9
2018-01-30T17:45:02.823Z,4.9
2018-01-30T17:50:05.888Z,4.9
2018-01-30T17:55:07.895Z,4.8
2018-01-30T18:00:04.989Z,4.7
2018-01-30T18:05:02.946Z,4.7
2018-01-30T18:10:05.685Z,4.7
2018-01-30T18:15:05.244Z,4.7
2018-01-30T18:20:18.018Z,4.7
2018-01-30T18:25:05.926Z,4.6
2018-01-30T18:30:02.419Z,4.6
2018-01-30T18:35:05.444Z,4.5
2018-01-30T18:40:04.988Z,4.4
2018-01-30T18:45:03.058Z,4.4
2018-01-30T18:50:07.650Z,4.3
2018-01-30T18:55:03.182Z,4.3
2018-01-30T19:00:10.302Z,4.2
2018-01-30T19:05:03.327Z,4.2
2018-01-30T19:10:08.460Z,4.1
2018-01-30T19:15:07.992Z,4.1
2018-01-30T19:20:12.854Z,4.1
2018-01-30T19:25:05.754Z,4.1
2018-01-30T19:30:03.361Z,4.1
2018-01-30T19:35:02.866Z,4.1
2018-01-30T19:40:05.372Z,4
2018-01-30T19:45:03.324Z,4
2018-01-30T19:50:05.424Z,4
2018-01-30T19:55:03.371Z,4
2018-01-30T20:00:02.948Z,3.9
2018-01-30T20:05:07.533Z,3.8
2018-01-30T20:10:07.584Z,3.8
2018-01-30T20:15:05.688Z,3.8
2018-01-30T20:20:03.381Z,3.8
2018-01-30T20:25:03.019Z,3.8
2018-01-30T20:30:02.567Z,3.7
2018-01-30T20:35:03.019Z,3.7
2018-01-30T20:40:07.783Z,3.6
2018-01-30T20:45:03.196Z,3.6
2018-01-30T20:50:20.423Z,3.6
2018-01-30T20:55:05.731Z,3.6
2018-01-30T21:00:03.293Z,3.5
2018-01-30T21:05:08.789Z,3.5
2018-01-30T21:10:02.894Z,3.5
2018-01-30T21:15:02.515Z,3.6
2018-01-30T21:20:05.267Z,3.6
2018-01-30T21:25:03.024Z,3.6
2018-01-30T21:30:05.156Z,3.6
2018-01-30T21:35:05.627Z,3.7
2018-01-30T21:40:05.393Z,3.6
2018-01-30T21:45:05.862Z,3.6
2018-01-30T21:50:07.467Z,3.6
2018-01-30T21:55:05.414Z,3.6
2018-01-30T22:00:08.029Z,3.6
2018-01-30T22:05:05.055Z,3.6
2018-01-30T22:10:03.066Z,3.6
2018-01-30T22:15:05.192Z,3.5
2018-01-30T22:20:07.925Z,3.5
2018-01-30T22:25:08.461Z,3.5
2018-01-30T22:30:18.176Z,3.5
2018-01-30T22:35:05.028Z,3.4
2018-01-30T22:40:05.543Z,3.4
2018-01-30T22:45:15.576Z,3.3
